createdAt,value
2023-05-24T00:00:52.957Z,0.69
2023-05-24T00:03:58.686Z,0.89
2023-05-24T00:07:03.272Z,0.93
2023-05-24T00:10:08.587Z,0.70
2023-05-24T00:13:12.845Z,0.89
2023-05-24T00:16:16.627Z,1.00
2023-05-24T00:19:21.281Z,0.94
2023-05-24T00:22:27.772Z,0.87
2023-05-24T00:25:42.631Z,0.95
2023-05-24T00:28:46.637Z,0.88
2023-05-24T00:31:50.783Z,1.00
2023-05-24T00:34:55.442Z,0.81
2023-05-24T00:38:00.011Z,0.96
2023-05-24T00:41:06.830Z,0.86
2023-05-24T00:44:14.422Z,0.83
2023-05-24T00:47:18.532Z,0.80
2023-05-24T00:50:22.933Z,0.83
2023-05-24T00:53:27.417Z,0.69
2023-05-24T00:56:31.897Z,0.69
2023-05-24T00:59:36.777Z,0.70
2023-05-24T01:02:41.009Z,0.73
2023-05-24T01:05:46.250Z,0.86
2023-05-24T01:08:51.395Z,0.91
2023-05-24T01:11:55.637Z,0.75
2023-05-24T01:15:00.998Z,0.64
2023-05-24T01:18:09.423Z,0.72
2023-05-24T01:21:17.935Z,0.71
2023-05-24T01:24:22.273Z,0.91
2023-05-24T01:30:34.156Z,0.81
2023-05-24T01:33:38.597Z,1.00
2023-05-24T01:36:47.340Z,0.92
2023-05-24T01:39:52.813Z,0.81
2023-05-24T01:42:58.734Z,0.76
2023-05-24T01:46:02.897Z,0.74
2023-05-24T01:49:08.147Z,0.80
2023-05-24T01:52:13.715Z,0.72
2023-05-24T01:55:19.259Z,0.90
2023-05-24T01:58:23.663Z,0.73
2023-05-24T02:01:28.951Z,0.89
2023-05-24T02:04:34.568Z,0.91
2023-05-24T02:07:38.743Z,0.94
2023-05-24T02:10:44.455Z,0.71
2023-05-24T02:13:48.943Z,1.05
2023-05-24T02:16:52.814Z,0.72
2023-05-24T02:19:57.317Z,0.79
2023-05-24T02:23:01.184Z,0.81
2023-05-24T02:26:05.891Z,0.92
2023-05-24T02:29:10.358Z,0.75
2023-05-24T02:32:18.853Z,1.01
2023-05-24T02:35:24.413Z,0.78
2023-05-24T02:38:29.881Z,0.77
2023-05-24T02:41:34.477Z,0.79
2023-05-24T02:44:45.509Z,0.91
2023-05-24T02:47:49.902Z,1.17
2023-05-24T02:50:54.361Z,0.86
2023-05-24T02:53:59.949Z,0.78
2023-05-24T03:00:10.657Z,0.78
2023-05-24T03:03:15.482Z,0.77
2023-05-24T03:06:20.019Z,0.90
2023-05-24T03:09:24.293Z,0.87
2023-05-24T03:12:30.041Z,0.87
2023-05-24T03:15:35.572Z,1.14
2023-05-24T03:18:50.401Z,0.86
2023-05-24T03:21:54.670Z,0.73
2023-05-24T03:25:00.274Z,0.95
2023-05-24T03:28:04.619Z,0.73
2023-05-24T03:34:32.503Z,1.02
2023-05-24T03:37:38.044Z,1.20
2023-05-24T03:40:43.103Z,1.06
2023-05-24T03:43:47.082Z,1.05
2023-05-24T03:46:51.144Z,0.79
2023-05-24T03:49:55.314Z,0.96
2023-05-24T03:53:00.714Z,1.03
2023-05-24T03:56:04.526Z,0.87
2023-05-24T03:59:08.882Z,0.76
2023-05-24T04:02:13.177Z,1.01
2023-05-24T04:08:26.849Z,1.09
2023-05-24T04:11:31.251Z,1.06
2023-05-24T04:14:35.885Z,0.99
2023-05-24T04:17:41.018Z,1.05
2023-05-24T04:20:45.286Z,0.92
2023-05-24T04:23:50.664Z,0.92
2023-05-24T04:26:55.098Z,0.96
2023-05-24T04:29:59.081Z,0.93
2023-05-24T04:33:04.494Z,0.78
2023-05-24T04:36:10.791Z,1.11
2023-05-24T04:39:14.762Z,0.96
2023-05-24T04:42:30.245Z,1.07
2023-05-24T04:45:35.659Z,1.01
2023-05-24T04:48:39.834Z,1.02
2023-05-24T04:51:45.400Z,0.77
2023-05-24T04:58:14.089Z,0.96
2023-05-24T05:01:20.146Z,0.90
2023-05-24T05:04:27.609Z,0.96
2023-05-24T05:07:31.878Z,0.95
2023-05-24T05:10:36.065Z,1.00
2023-05-24T05:13:43.698Z,0.96
2023-05-24T05:16:47.877Z,1.00
2023-05-24T05:19:51.735Z,1.10
2023-05-24T05:22:58.791Z,0.96
2023-05-24T05:26:06.019Z,0.99
2023-05-24T05:29:10.014Z,1.10
2023-05-24T05:32:14.173Z,0.84
2023-05-24T05:35:18.210Z,1.04
2023-05-24T05:38:24.445Z,1.00
2023-05-24T05:41:28.586Z,0.99
2023-05-24T05:44:32.395Z,0.93
2023-05-24T05:47:37.588Z,0.97
2023-05-24T05:50:42.706Z,0.97
2023-05-24T05:53:46.930Z,1.04
2023-05-24T06:00:13.930Z,1.08
2023-05-24T06:03:17.905Z,0.88
2023-05-24T06:06:22.093Z,0.95
2023-05-24T06:09:27.168Z,1.00
2023-05-24T06:12:32.800Z,1.40
2023-05-24T06:15:36.934Z,1.09
2023-05-24T06:18:43.167Z,1.29
2023-05-24T06:21:51.605Z,1.07
2023-05-24T06:24:56.898Z,1.00
2023-05-24T06:28:03.365Z,1.11
2023-05-24T06:31:07.743Z,1.08
2023-05-24T06:34:14.245Z,1.16
2023-05-24T06:37:20.890Z,0.99
2023-05-24T06:40:24.914Z,1.82
2023-05-24T06:43:31.198Z,1.08
2023-05-24T06:46:35.535Z,1.00
2023-05-24T06:49:40.930Z,1.23
2023-05-24T06:52:46.926Z,1.06
2023-05-24T06:55:56.944Z,0.88
2023-05-24T06:59:03.106Z,1.11
2023-05-24T07:02:09.841Z,1.10
2023-05-24T07:08:36.270Z,1.07
2023-05-24T07:11:50.778Z,1.09
2023-05-24T07:14:58.121Z,1.36
2023-05-24T07:18:02.703Z,1.35
2023-05-24T07:21:06.860Z,1.15
2023-05-24T07:24:12.640Z,1.02
2023-05-24T07:27:20.878Z,1.05
2023-05-24T07:34:11.158Z,1.09
2023-05-24T07:37:20.042Z,0.93
2023-05-24T07:40:28.359Z,1.26
2023-05-24T07:43:37.065Z,1.06
2023-05-24T07:46:46.406Z,1.00
2023-05-24T07:56:37.205Z,0.89
2023-05-24T08:03:04.678Z,0.98
2023-05-24T08:06:10.477Z,1.02
2023-05-24T08:09:14.639Z,1.07
2023-05-24T08:12:20.132Z,1.35
2023-05-24T08:15:24.326Z,1.18
2023-05-24T08:18:32.505Z,1.10
2023-05-24T08:21:40.811Z,1.17
2023-05-24T08:24:47.849Z,0.97
2023-05-24T08:27:52.274Z,1.30
2023-05-24T08:31:01.051Z,1.19
2023-05-24T08:34:05.404Z,1.19
2023-05-24T08:37:09.616Z,1.16
2023-05-24T08:43:46.132Z,1.16
2023-05-24T08:46:51.834Z,1.13
2023-05-24T08:53:22.414Z,1.27
2023-05-24T08:56:30.606Z,1.31
2023-05-24T08:59:23.980Z,1.16
2023-05-24T09:00:16.125Z,1.08
2023-05-24T09:03:31.801Z,1.27
2023-05-24T09:09:59.225Z,1.10
2023-05-24T09:12:14.895Z,1.06
2023-05-24T09:13:09.753Z,1.31
2023-05-24T09:16:16.119Z,1.25
2023-05-24T09:19:29.116Z,1.30
2023-05-24T09:22:34.644Z,1.21
2023-05-24T09:25:40.890Z,1.27
2023-05-24T09:28:45.266Z,1.25
2023-05-24T09:31:52.720Z,1.38
2023-05-24T09:34:57.257Z,1.31
2023-05-24T09:38:51.632Z,1.33
2023-05-24T09:41:44.850Z,1.01
2023-05-24T09:48:17.944Z,1.56
2023-05-24T09:51:38.039Z,1.24
2023-05-24T09:58:11.959Z,1.09
2023-05-24T10:01:19.667Z,1.13
2023-05-24T10:04:25.452Z,1.08
2023-05-24T10:07:30.173Z,1.22
2023-05-24T10:10:34.300Z,1.12
2023-05-24T10:13:40.739Z,1.14
2023-05-24T10:16:44.814Z,1.38
2023-05-24T10:19:48.911Z,1.39
2023-05-24T10:22:53.594Z,1.11
2023-05-24T10:25:58.378Z,1.27
2023-05-24T10:29:02.256Z,1.32
2023-05-24T10:32:05.929Z,1.17
2023-05-24T10:35:09.755Z,1.11
2023-05-24T10:38:14.567Z,1.01
2023-05-24T10:41:19.799Z,1.21
2023-05-24T10:44:28.723Z,1.21
2023-05-24T10:47:38.900Z,1.18
2023-05-24T10:54:08.900Z,1.12
2023-05-24T10:57:17.802Z,1.22
2023-05-24T11:00:33.813Z,1.26
2023-05-24T11:03:40.905Z,1.41
2023-05-24T11:06:45.338Z,1.28
2023-05-24T11:09:50.652Z,1.37
2023-05-24T11:12:57.903Z,1.15
2023-05-24T11:16:04.745Z,1.21
2023-05-24T11:19:09.342Z,1.30
2023-05-24T11:22:12.999Z,1.36
2023-05-24T11:25:17.145Z,1.30
2023-05-24T11:28:20.976Z,1.40
2023-05-24T11:31:25.472Z,1.37
2023-05-24T11:34:41.590Z,1.37
2023-05-24T11:37:46.680Z,1.31
2023-05-24T11:40:50.974Z,1.03
2023-05-24T11:43:54.881Z,1.20
2023-05-24T11:46:58.858Z,1.18
2023-05-24T11:50:02.823Z,1.12
2023-05-24T11:53:06.745Z,1.25
2023-05-24T11:56:10.743Z,1.06
2023-05-24T11:59:14.921Z,1.39
2023-05-24T12:02:18.977Z,1.06
2023-05-24T12:05:26.968Z,0.85
2023-05-24T12:08:31.252Z,1.12
2023-05-24T12:11:37.496Z,0.82
2023-05-24T12:14:41.584Z,0.80
2023-05-24T12:21:09.016Z,0.76
2023-05-24T12:24:13.416Z,1.02
2023-05-24T12:27:17.768Z,0.84
2023-05-24T12:30:21.781Z,0.81
2023-05-24T12:33:26.170Z,0.91
2023-05-24T12:36:30.085Z,0.98
2023-05-24T12:39:34.183Z,0.70
2023-05-24T12:42:38.551Z,0.69
2023-05-24T12:45:42.356Z,0.65
2023-05-24T12:48:51.816Z,0.69
2023-05-24T12:51:55.933Z,0.76
2023-05-24T12:55:00.152Z,0.91
2023-05-24T12:58:04.159Z,0.82
2023-05-24T13:01:08.522Z,1.19
2023-05-24T13:04:12.403Z,0.88
2023-05-24T13:07:16.308Z,0.89
2023-05-24T13:10:20.642Z,1.30
2023-05-24T13:13:24.747Z,0.98
2023-05-24T13:16:28.863Z,0.97
2023-05-24T13:19:32.676Z,0.90
2023-05-24T13:22:36.658Z,0.87
2023-05-24T13:25:43.830Z,0.99
2023-05-24T13:29:15.075Z,0.71
2023-05-24T13:32:12.182Z,0.64
2023-05-24T13:35:16.403Z,0.56
2023-05-24T13:38:20.341Z,0.53
2023-05-24T13:41:24.173Z,0.66
2023-05-24T13:44:28.195Z,0.58
2023-05-24T13:47:40.022Z,0.63
2023-05-24T13:50:45.113Z,0.52
2023-05-24T13:53:52.118Z,0.46
2023-05-24T13:56:56.195Z,0.47
2023-05-24T14:00:00.364Z,0.68
2023-05-24T14:03:05.748Z,0.62
2023-05-24T14:06:09.788Z,0.82
2023-05-24T14:09:14.028Z,0.82
2023-05-24T14:12:21.347Z,0.73
2023-05-24T14:15:25.774Z,0.62
2023-05-24T14:18:29.681Z,0.75
2023-05-24T14:21:33.833Z,0.70
2023-05-24T14:24:38.023Z,0.72
2023-05-24T14:27:42.615Z,0.80
2023-05-24T14:30:47.127Z,0.62
2023-05-24T14:33:50.976Z,0.66
2023-05-24T14:36:54.955Z,0.62
2023-05-24T14:39:59.172Z,0.59
2023-05-24T14:43:03.320Z,0.57
2023-05-24T14:46:07.686Z,0.63
2023-05-24T14:49:11.742Z,0.79
2023-05-24T14:52:15.838Z,0.75
2023-05-24T14:55:19.795Z,0.64
2023-05-24T14:58:23.593Z,0.65
2023-05-24T15:01:27.527Z,0.75
2023-05-24T15:04:31.646Z,0.75
2023-05-24T15:07:38.092Z,0.65
2023-05-24T15:10:42.319Z,0.70
2023-05-24T15:13:46.527Z,0.64
2023-05-24T15:16:50.785Z,0.74
2023-05-24T15:19:54.821Z,0.58
2023-05-24T15:22:59.766Z,0.84
2023-05-24T15:26:03.780Z,0.74
2023-05-24T15:29:07.652Z,0.62
2023-05-24T15:32:11.711Z,0.90
2023-05-24T15:35:15.567Z,0.73
2023-05-24T15:38:19.788Z,0.58
2023-05-24T15:41:23.661Z,0.77
2023-05-24T15:44:27.661Z,0.76
2023-05-24T15:47:31.938Z,0.65
2023-05-24T15:50:51.891Z,0.63
2023-05-24T15:54:00.246Z,0.65
2023-05-24T16:00:24.399Z,0.66
2023-05-24T16:03:28.956Z,0.72
2023-05-24T16:06:34.635Z,0.94
2023-05-24T16:12:59.599Z,0.75
2023-05-24T16:16:05.739Z,0.69
2023-05-24T16:19:11.252Z,0.87
2023-05-24T16:22:16.874Z,0.96
2023-05-24T16:25:21.227Z,0.80
2023-05-24T16:28:31.736Z,0.93
2023-05-24T16:35:25.591Z,0.71
2023-05-24T16:39:51.694Z,0.82
2023-05-24T16:41:56.001Z,0.83
2023-05-24T16:45:04.418Z,0.76
2023-05-24T16:48:08.994Z,0.87
2023-05-24T16:51:13.733Z,0.86
2023-05-24T16:54:18.169Z,0.72
2023-05-24T16:57:22.119Z,0.96
2023-05-24T17:00:33.340Z,0.76
2023-05-24T17:03:37.807Z,0.77
2023-05-24T17:06:42.097Z,0.89
2023-05-24T17:09:45.915Z,0.92
2023-05-24T17:12:49.662Z,0.75
2023-05-24T17:15:55.024Z,0.67
2023-05-24T17:19:03.192Z,0.85
2023-05-24T17:22:07.742Z,0.76
2023-05-24T17:25:13.626Z,0.85
2023-05-24T17:28:17.758Z,0.93
2023-05-24T17:31:21.848Z,0.88
2023-05-24T17:34:26.428Z,0.97
2023-05-24T17:37:30.388Z,0.88
2023-05-24T17:40:34.609Z,0.93
2023-05-24T17:43:42.963Z,0.96
2023-05-24T17:46:47.170Z,0.93
2023-05-24T17:49:51.184Z,0.99
2023-05-24T17:52:55.136Z,0.90
2023-05-24T17:56:00.597Z,0.78
2023-05-24T17:59:04.993Z,0.77
2023-05-24T18:02:09.065Z,1.02
2023-05-24T18:05:13.351Z,0.76
2023-05-24T18:08:17.527Z,0.93
2023-05-24T18:11:21.806Z,0.78
2023-05-24T18:14:26.141Z,0.64
2023-05-24T18:17:33.672Z,0.80
2023-05-24T18:20:39.568Z,0.83
2023-05-24T18:23:44.130Z,0.88
2023-05-24T18:26:48.946Z,0.86
2023-05-24T18:29:52.951Z,0.89
2023-05-24T18:33:05.497Z,0.91
2023-05-24T18:36:13.923Z,1.07
2023-05-24T18:39:18.006Z,1.19
2023-05-24T18:42:22.118Z,0.87
2023-05-24T18:45:26.256Z,0.88
2023-05-24T18:48:30.398Z,0.80
2023-05-24T18:51:38.631Z,0.83
2023-05-24T18:54:42.587Z,0.98
2023-05-24T18:57:46.292Z,0.96
2023-05-24T19:00:51.572Z,0.91
2023-05-24T19:03:55.812Z,0.87
2023-05-24T19:07:00.256Z,0.76
2023-05-24T19:10:04.414Z,0.81
2023-05-24T19:13:08.502Z,0.84
2023-05-24T19:16:12.523Z,0.85
2023-05-24T19:19:16.246Z,0.87
2023-05-24T19:22:20.251Z,0.97
2023-05-24T19:25:25.598Z,0.86
2023-05-24T19:28:31.444Z,1.15
2023-05-24T19:31:35.456Z,1.01
2023-05-24T19:34:39.340Z,1.10
2023-05-24T19:37:43.204Z,1.12
2023-05-24T19:40:47.083Z,0.99
2023-05-24T19:43:51.098Z,0.80
2023-05-24T19:46:55.158Z,0.96
2023-05-24T19:49:59.192Z,1.06
2023-05-24T19:53:02.964Z,1.13
2023-05-24T19:56:06.776Z,1.09
2023-05-24T19:59:11.749Z,1.01
2023-05-24T20:02:15.826Z,1.09
2023-05-24T20:05:20.078Z,1.12
2023-05-24T20:08:24.034Z,1.04
2023-05-24T20:11:28.244Z,1.05
2023-05-24T20:14:34.567Z,0.93
2023-05-24T20:17:38.720Z,0.98
2023-05-24T20:20:43.812Z,1.16
2023-05-24T20:23:48.236Z,1.13
2023-05-24T20:30:14.414Z,1.18
2023-05-24T20:33:18.501Z,1.39
2023-05-24T20:36:22.552Z,1.05
2023-05-24T20:39:26.220Z,1.21
2023-05-24T20:42:30.121Z,1.21
2023-05-24T20:45:34.703Z,1.23
2023-05-24T20:48:38.645Z,1.20
2023-05-24T20:51:44.377Z,1.49
2023-05-24T20:54:48.715Z,1.33
2023-05-24T20:58:11.141Z,1.24
2023-05-24T21:01:15.838Z,1.18
2023-05-24T21:04:20.198Z,1.23
2023-05-24T21:07:24.350Z,1.26
2023-05-24T21:10:29.001Z,1.20
2023-05-24T21:13:33.141Z,1.21
2023-05-24T21:16:37.654Z,1.02
2023-05-24T21:19:44.055Z,1.20
2023-05-24T21:22:51.584Z,1.23
2023-05-24T21:25:55.346Z,1.33
2023-05-24T21:29:00.576Z,1.57
2023-05-24T21:32:04.714Z,1.19
2023-05-24T21:35:08.938Z,1.48
2023-05-24T21:38:13.073Z,1.19
2023-05-24T21:41:18.444Z,1.41
2023-05-24T21:44:23.077Z,1.58
2023-05-24T21:47:27.596Z,1.37
2023-05-24T21:50:32.004Z,1.27
2023-05-24T21:53:36.321Z,1.33
2023-05-24T21:56:41.321Z,1.40
2023-05-24T21:59:45.548Z,1.34
2023-05-24T22:02:49.532Z,1.09
2023-05-24T22:05:55.140Z,1.44
2023-05-24T22:08:59.508Z,1.24
2023-05-24T22:12:04.496Z,1.20
2023-05-24T22:15:14.546Z,1.38
2023-05-24T22:18:18.559Z,1.60
2023-05-24T22:21:22.802Z,1.52
2023-05-24T22:24:27.274Z,1.27
2023-05-24T22:27:34.577Z,1.30
2023-05-24T22:30:39.002Z,1.26
2023-05-24T22:33:42.915Z,1.23
2023-05-24T22:36:49.861Z,1.21
2023-05-24T22:39:54.296Z,1.43
2023-05-24T22:42:58.137Z,1.37
2023-05-24T22:46:02.266Z,1.25
2023-05-24T22:49:06.236Z,1.17
2023-05-24T22:52:09.969Z,1.26
2023-05-24T22:55:16.966Z,1.30
2023-05-24T22:58:21.390Z,1.30
2023-05-24T23:01:26.988Z,1.26
2023-05-24T23:04:33.768Z,1.29
2023-05-24T23:07:38.817Z,1.06
2023-05-24T23:10:46.179Z,1.21
2023-05-24T23:13:54.521Z,1.34
2023-05-24T23:17:00.153Z,1.20
2023-05-24T23:20:07.307Z,1.35
2023-05-24T23:23:14.872Z,1.10
2023-05-24T23:36:37.567Z,1.33
2023-05-24T23:39:50.658Z,1.35
2023-05-24T23:46:32.148Z,1.25
2023-05-24T23:49:36.464Z,1.02
2023-05-24T23:52:43.769Z,1.39
2023-05-24T23:59:13.793Z,1.17
